createdAt,value
2023-10-17T00:07:09.613Z,0.10
2023-10-17T00:17:17.356Z,0.10
2023-10-17T00:27:20.225Z,0.20
2023-10-17T00:37:24.916Z,0.10
2023-10-17T00:47:28.617Z,0.20
2023-10-17T00:57:32.820Z,0.10
2023-10-17T01:07:35.720Z,0.10
2023-10-17T01:17:39.214Z,0.10
2023-10-17T01:27:42.397Z,0.20
2023-10-17T01:37:44.903Z,0.10
2023-10-17T01:47:47.446Z,0.10
2023-10-17T01:57:55.223Z,0.20
2023-10-17T02:07:59.996Z,0.30
2023-10-17T02:18:13.409Z,0.20
2023-10-17T02:28:15.968Z,0.20
2023-10-17T02:38:18.755Z,0.10
2023-10-17T02:48:27.638Z,0.17
2023-10-17T02:58:31.411Z,0.10
2023-10-17T03:08:37.919Z,0.10
2023-10-17T03:18:51.654Z,0.20
2023-10-17T03:28:54.240Z,0.30
2023-10-17T03:39:15.810Z,0.10
2023-10-17T03:49:20.010Z,0.10
2023-10-17T03:59:43.431Z,0.20
2023-10-17T04:09:57.014Z,0.30
2023-10-17T04:20:13.008Z,0.10
2023-10-17T04:30:16.386Z,0.20
2023-10-17T04:40:29.269Z,0.10
2023-10-17T04:50:45.376Z,0.10
2023-10-17T05:01:16.685Z,0.10
2023-10-17T05:11:42.303Z,0.10
2023-10-17T05:22:04.005Z,0.10
2023-10-17T05:32:25.419Z,0.10
2023-10-17T05:42:55.733Z,0.10
2023-10-17T05:53:17.080Z,0.20
2023-10-17T06:03:38.145Z,0.10
2023-10-17T06:13:59.815Z,0.10
2023-10-17T06:24:21.801Z,0.10
2023-10-17T06:34:28.804Z,0.10
2023-10-17T06:44:35.200Z,0.10
2023-10-17T06:54:42.758Z,0.30
2023-10-17T07:04:51.210Z,0.30
2023-10-17T07:15:23.684Z,0.20
2023-10-17T07:25:27.022Z,0.20
2023-10-17T07:35:33.074Z,0.30
2023-10-17T07:45:42.783Z,0.20
2023-10-17T07:55:49.330Z,0.20
2023-10-17T08:06:04.369Z,0.20
2023-10-17T08:16:10.370Z,0.30
2023-10-17T08:26:14.554Z,0.20
2023-10-17T08:36:18.123Z,0.40
2023-10-17T08:46:22.372Z,0.30
2023-10-17T08:56:29.975Z,0.30
2023-10-17T09:06:38.857Z,0.60
2023-10-17T09:16:51.821Z,0.40
2023-10-17T09:26:57.614Z,0.37
2023-10-17T09:37:07.710Z,0.77
2023-10-17T09:47:11.886Z,0.40
2023-10-17T09:58:10.179Z,0.40
2023-10-17T10:08:34.579Z,0.50
2023-10-17T10:18:47.176Z,0.70
2023-10-17T10:28:52.776Z,0.80
2023-10-17T10:39:10.408Z,0.90
2023-10-17T10:49:15.062Z,0.73
2023-10-17T10:59:27.533Z,0.50
2023-10-17T11:09:30.751Z,0.53
2023-10-17T11:19:33.610Z,0.60
2023-10-17T11:29:36.663Z,0.50
2023-10-17T11:39:42.276Z,0.70
2023-10-17T11:49:51.006Z,0.50
2023-10-17T12:00:29.250Z,0.65
2023-10-17T12:10:37.905Z,0.30
2023-10-17T12:20:43.424Z,0.53
2023-10-17T12:30:48.080Z,0.40
2023-10-17T12:40:59.661Z,0.70
2023-10-17T12:51:12.946Z,0.57
2023-10-17T13:01:31.081Z,0.67
2023-10-17T13:11:35.389Z,0.40
2023-10-17T13:21:39.271Z,1.10
2023-10-17T13:31:42.344Z,0.63
2023-10-17T13:41:44.978Z,0.40
2023-10-17T13:51:48.485Z,0.40
2023-10-17T14:01:53.895Z,0.50
2023-10-17T14:23:07.419Z,0.50
2023-10-17T14:33:10.369Z,0.43
2023-10-17T14:43:16.099Z,0.57
2023-10-17T14:53:22.174Z,0.30
2023-10-17T15:03:27.646Z,0.43
2023-10-17T15:13:30.495Z,0.30
2023-10-17T15:23:33.045Z,0.55
2023-10-17T15:33:36.500Z,0.20
2023-10-17T15:43:41.705Z,0.50
2023-10-17T15:53:45.304Z,0.30
2023-10-17T16:03:48.236Z,0.50
2023-10-17T16:13:50.908Z,0.20
2023-10-17T16:23:55.246Z,0.47
2023-10-17T16:33:57.824Z,0.20
2023-10-17T16:44:01.166Z,0.50
2023-10-17T16:54:06.635Z,0.60
2023-10-17T17:04:10.396Z,0.30
2023-10-17T17:14:12.946Z,0.27
2023-10-17T17:24:18.316Z,0.20
2023-10-17T17:34:23.011Z,0.30
2023-10-17T17:44:28.071Z,0.30
2023-10-17T17:54:31.830Z,0.20
2023-10-17T18:04:34.659Z,0.20
2023-10-17T18:14:37.381Z,0.20
2023-10-17T18:24:40.448Z,0.30
2023-10-17T18:34:43.457Z,0.20
2023-10-17T18:44:47.265Z,0.32
2023-10-17T18:54:52.554Z,0.20
2023-10-17T19:04:55.227Z,0.20
2023-10-17T19:14:58.913Z,0.20
2023-10-17T19:25:01.658Z,0.30
2023-10-17T19:35:04.992Z,0.20
2023-10-17T19:45:10.429Z,0.30
2023-10-17T19:55:18.178Z,0.20
2023-10-17T20:05:20.881Z,0.43
2023-10-17T20:15:24.308Z,0.30
2023-10-17T20:25:27.010Z,0.25
2023-10-17T20:35:36.248Z,0.20
2023-10-17T20:45:39.212Z,0.20
2023-10-17T20:55:42.750Z,0.30
2023-10-17T21:05:47.924Z,0.30
2023-10-17T21:15:52.147Z,0.20
2023-10-17T21:26:04.847Z,0.30
2023-10-17T21:36:08.393Z,0.20
2023-10-17T21:46:12.701Z,0.30
2023-10-17T21:56:16.888Z,0.20
2023-10-17T22:06:22.029Z,0.20
2023-10-17T22:16:24.879Z,0.20
2023-10-17T22:26:27.536Z,0.47
2023-10-17T22:36:30.691Z,0.30
2023-10-17T22:46:33.332Z,0.20
2023-10-17T22:56:35.977Z,0.20
2023-10-17T23:06:39.051Z,0.20
2023-10-17T23:16:41.684Z,0.20
2023-10-17T23:26:44.221Z,0.20
2023-10-17T23:36:48.174Z,0.20
2023-10-17T23:46:51.789Z,0.30
2023-10-17T23:56:54.472Z,0.20
